Polaris — JD2797 — position and weather

sailwx.info

Track history (hours):
 
Tides and Currents Weather Stations Pressure Air Temp Water Temp Dewpoint Dewpoint Depression Visibility Wind Speed Wind Dir Waves Ship Positions

Polaris

Last reported at 2014-Nov-22 21:34 UTC. Time now 2014-Nov-23 12:22 UTC.
Position N 35°19' E 139°40'.

Length 26 m; draft 2.6 m.

Type: Pilot. MMSI: 431000764.

Date/timePositionNaut miles runAvg speedWind from/ knotsBaromVisibWave heightAir tempDewpointWater temp
2014-Nov-22 21:34N 35°19' E 139°40'5 5.0
2014-Nov-22 20:33N 35°21' E 139°45'11 9.8
2014-Nov-22 19:26N 35°10' E 139°46'1011.4
2014-Nov-22 18:33N 35°18' E 139°39'1 0.1
2014-Nov-22 10:33N 35°19' E 139°38'0 0.0
2014-Nov-22 09:33N 35°19' E 139°38'7 7.0
2014-Nov-22 08:32N 35°14' E 139°45'8 8.2
2014-Nov-22 07:33N 35°22' E 139°42'4 3.5
2014-Nov-22 06:33N 35°26' E 139°42'8 6.3
2014-Nov-22 05:20N 35°19' E 139°38'0 0.0
2014-Nov-22 04:09N 35°19' E 139°38'0 0.0
2014-Nov-22 03:24N 35°19' E 139°38'0 0.0
2014-Nov-22 02:27N 35°19' E 139°38'0 0.0
2014-Nov-22 01:31N 35°19' E 139°38'0 0.0
2014-Nov-21 06:09N 35°19' E 139°38'0 0.0
2014-Nov-21 05:24N 35°19' E 139°38'0 0.0
2014-Nov-21 04:09N 35°19' E 139°38'0 0.0
2014-Nov-21 03:28N 35°19' E 139°38'0 0.0
2014-Nov-21 02:30N 35°19' E 139°38'3 1.1
2014-Nov-20 23:33N 35°18' E 139°42'2 2.3
2014-Nov-20 22:33N 35°17' E 139°45'8 7.7
2014-Nov-20 21:33N 35°25' E 139°45'8 8.4
2014-Nov-20 20:33N 35°19' E 139°38'0 0.0
2014-Nov-20 19:33N 35°19' E 139°38'0 0.0
2014-Nov-20 18:33N 35°19' E 139°38'0 0.0
2014-Nov-20 17:23N 35°19' E 139°38'0 0.0
2014-Nov-20 16:20N 35°19' E 139°38'0 0.0
2014-Nov-20 13:28N 35°19' E 139°38'0 0.0
2014-Nov-20 12:31N 35°19' E 139°38'0 0.0
2014-Nov-20 11:28N 35°19' E 139°38'0 0.0
2014-Nov-20 10:30N 35°19' E 139°38'0 0.0
2014-Nov-20 08:13N 35°19' E 139°38'  
2014-Nov-17 23:09N 35°18' E 139°39'911.4
2014-Nov-17 22:24N 35°12' E 139°46'1012.4
2014-Nov-17 21:33N 35°22' E 139°42'2 1.6
2014-Nov-17 20:33N 35°21' E 139°43'5 0.5
2014-Nov-17 10:16N 35°19' E 139°38'8 7.1
2014-Nov-17 09:11N 35°14' E 139°46'813.1
2014-Nov-17 08:33N 35°22' E 139°42'0 0.5
2014-Nov-17 07:33N 35°22' E 139°43'5 5.1
2014-Nov-17 06:33N 35°19' E 139°38'4 0.2
2014-Nov-16 08:33N 35°21' E 139°42'4 3.6
2014-Nov-16 07:33N 35°18' E 139°45'5 4.2
2014-Nov-16 06:25N 35°13' E 139°46'8 8.1
2014-Nov-16 05:23N 35°19' E 139°38'0 0.0
2014-Nov-15 03:28N 35°18' E 139°39'8 8.2
2014-Nov-15 02:28N 35°13' E 139°46'1111.5
2014-Nov-15 01:33N 35°23' E 139°41'2 1.6
2014-Nov-15 00:33N 35°24' E 139°39'5 4.9
2014-Nov-14 23:31N 35°19' E 139°38'0 0.0
2014-Nov-14 22:33N 35°19' E 139°38'  
Track history (hours):
 
Tides and Currents Weather Stations Pressure Air Temp Water Temp Dewpoint Dewpoint Depression Visibility Wind Speed Wind Dir Waves Ship Positions

Polaris

Last reported at 2014-Nov-22 21:34 UTC. Time now 2014-Nov-23 12:22 UTC.
Position N 35°19' E 139°40'.

Length 26 m; draft 2.6 m.

Type: Pilot. MMSI: 431000764.

Date/timePositionNaut miles runAvg speedWind from/ knotsBaromVisibWave heightAir tempDewpointWater temp
2014-Nov-22 21:34N 35°19' E 139°40'5 5.0
2014-Nov-22 20:33N 35°21' E 139°45'11 9.8
2014-Nov-22 19:26N 35°10' E 139°46'1011.4
2014-Nov-22 18:33N 35°18' E 139°39'1 0.1
2014-Nov-22 10:33N 35°19' E 139°38'0 0.0
2014-Nov-22 09:33N 35°19' E 139°38'7 7.0
2014-Nov-22 08:32N 35°14' E 139°45'8 8.2
2014-Nov-22 07:33N 35°22' E 139°42'4 3.5
2014-Nov-22 06:33N 35°26' E 139°42'8 6.3
2014-Nov-22 05:20N 35°19' E 139°38'0 0.0
2014-Nov-22 04:09N 35°19' E 139°38'0 0.0
2014-Nov-22 03:24N 35°19' E 139°38'0 0.0
2014-Nov-22 02:27N 35°19' E 139°38'0 0.0
2014-Nov-22 01:31N 35°19' E 139°38'0 0.0
2014-Nov-21 06:09N 35°19' E 139°38'0 0.0
2014-Nov-21 05:24N 35°19' E 139°38'0 0.0
2014-Nov-21 04:09N 35°19' E 139°38'0 0.0
2014-Nov-21 03:28N 35°19' E 139°38'0 0.0
2014-Nov-21 02:30N 35°19' E 139°38'3 1.1
2014-Nov-20 23:33N 35°18' E 139°42'2 2.3
2014-Nov-20 22:33N 35°17' E 139°45'8 7.7
2014-Nov-20 21:33N 35°25' E 139°45'8 8.4
2014-Nov-20 20:33N 35°19' E 139°38'0 0.0
2014-Nov-20 19:33N 35°19' E 139°38'0 0.0
2014-Nov-20 18:33N 35°19' E 139°38'0 0.0
2014-Nov-20 17:23N 35°19' E 139°38'0 0.0
2014-Nov-20 16:20N 35°19' E 139°38'0 0.0
2014-Nov-20 13:28N 35°19' E 139°38'0 0.0
2014-Nov-20 12:31N 35°19' E 139°38'0 0.0
2014-Nov-20 11:28N 35°19' E 139°38'0 0.0
2014-Nov-20 10:30N 35°19' E 139°38'0 0.0
2014-Nov-20 08:13N 35°19' E 139°38'  
2014-Nov-17 23:09N 35°18' E 139°39'911.4
2014-Nov-17 22:24N 35°12' E 139°46'1012.4
2014-Nov-17 21:33N 35°22' E 139°42'2 1.6
2014-Nov-17 20:33N 35°21' E 139°43'5 0.5
2014-Nov-17 10:16N 35°19' E 139°38'8 7.1
2014-Nov-17 09:11N 35°14' E 139°46'813.1
2014-Nov-17 08:33N 35°22' E 139°42'0 0.5
2014-Nov-17 07:33N 35°22' E 139°43'5 5.1
2014-Nov-17 06:33N 35°19' E 139°38'4 0.2
2014-Nov-16 08:33N 35°21' E 139°42'4 3.6
2014-Nov-16 07:33N 35°18' E 139°45'5 4.2
2014-Nov-16 06:25N 35°13' E 139°46'8 8.1
2014-Nov-16 05:23N 35°19' E 139°38'0 0.0
2014-Nov-15 03:28N 35°18' E 139°39'8 8.2
2014-Nov-15 02:28N 35°13' E 139°46'1111.5
2014-Nov-15 01:33N 35°23' E 139°41'2 1.6
2014-Nov-15 00:33N 35°24' E 139°39'5 4.9
2014-Nov-14 23:31N 35°19' E 139°38'0 0.0
2014-Nov-14 22:33N 35°19' E 139°38'  

Dump ship's entire track history